sensor_id;sensor_type;location;lat;lon;timestamp;P1;durP1;ratioP1;P2;durP2;ratioP2
21814;SDS011;11069;48.988;8.450;2022-09-01T00:00:37;19.10;;;17.10;;
21814;SDS011;11069;48.988;8.450;2022-09-01T00:03:06;18.75;;;16.92;;
21814;SDS011;11069;48.988;8.450;2022-09-01T00:05:34;17.98;;;16.13;;
21814;SDS011;11069;48.988;8.450;2022-09-01T00:08:01;20.48;;;17.08;;
21814;SDS011;11069;48.988;8.450;2022-09-01T00:10:27;19.15;;;16.38;;
21814;SDS011;11069;48.988;8.450;2022-09-01T00:12:52;21.52;;;16.52;;
21814;SDS011;11069;48.988;8.450;2022-09-01T00:15:18;17.70;;;15.98;;
21814;SDS011;11069;48.988;8.450;2022-09-01T00:17:44;19.15;;;17.35;;
21814;SDS011;11069;48.988;8.450;2022-09-01T00:20:09;19.17;;;17.40;;
21814;SDS011;11069;48.988;8.450;2022-09-01T00:22:35;19.00;;;17.13;;
21814;SDS011;11069;48.988;8.450;2022-09-01T00:25:01;19.15;;;17.27;;
21814;SDS011;11069;48.988;8.450;2022-09-01T00:27:28;18.85;;;17.25;;
21814;SDS011;11069;48.988;8.450;2022-09-01T00:29:54;19.02;;;17.25;;
21814;SDS011;11069;48.988;8.450;2022-09-01T00:32:20;19.75;;;17.67;;
21814;SDS011;11069;48.988;8.450;2022-09-01T00:34:46;19.58;;;16.92;;
21814;SDS011;11069;48.988;8.450;2022-09-01T00:37:11;20.45;;;16.45;;
21814;SDS011;11069;48.988;8.450;2022-09-01T00:39:37;22.25;;;17.42;;
21814;SDS011;11069;48.988;8.450;2022-09-01T00:42:03;19.42;;;17.65;;
21814;SDS011;11069;48.988;8.450;2022-09-01T00:44:29;18.98;;;17.17;;
21814;SDS011;11069;48.988;8.450;2022-09-01T00:46:55;19.02;;;17.10;;
21814;SDS011;11069;48.988;8.450;2022-09-01T00:49:29;19.25;;;17.02;;
21814;SDS011;11069;48.988;8.450;2022-09-01T00:52:06;19.25;;;16.67;;
21814;SDS011;11069;48.988;8.450;2022-09-01T00:54:56;16.10;;;14.50;;
21814;SDS011;11069;48.988;8.450;2022-09-01T00:57:23;20.20;;;14.65;;
21814;SDS011;11069;48.988;8.450;2022-09-01T01:00:00;16.77;;;15.07;;
21814;SDS011;11069;48.988;8.450;2022-09-01T01:02:32;17.30;;;15.60;;
21814;SDS011;11069;48.988;8.450;2022-09-01T01:04:58;16.55;;;15.07;;
21814;SDS011;11069;48.988;8.450;2022-09-01T01:07:24;17.25;;;15.45;;
21814;SDS011;11069;48.988;8.450;2022-09-01T01:09:52;16.65;;;14.88;;
21814;SDS011;11069;48.988;8.450;2022-09-01T01:12:18;15.68;;;14.23;;
21814;SDS011;11069;48.988;8.450;2022-09-01T01:14:44;15.98;;;14.40;;
21814;SDS011;11069;48.988;8.450;2022-09-01T01:17:14;16.43;;;14.93;;
21814;SDS011;11069;48.988;8.450;2022-09-01T01:19:49;15.90;;;14.35;;
21814;SDS011;11069;48.988;8.450;2022-09-01T01:22:49;16.85;;;15.05;;
21814;SDS011;11069;48.988;8.450;2022-09-01T01:25:34;17.30;;;15.35;;
21814;SDS011;11069;48.988;8.450;2022-09-01T01:30:48;16.65;;;15.10;;
21814;SDS011;11069;48.988;8.450;2022-09-01T01:33:20;15.80;;;14.40;;
21814;SDS011;11069;48.988;8.450;2022-09-01T01:35:48;17.90;;;16.13;;
21814;SDS011;11069;48.988;8.450;2022-09-01T01:38:15;17.67;;;15.98;;
21814;SDS011;11069;48.988;8.450;2022-09-01T01:40:43;17.48;;;15.98;;
21814;SDS011;11069;48.988;8.450;2022-09-01T01:43:09;19.25;;;17.25;;
21814;SDS011;11069;48.988;8.450;2022-09-01T01:45:36;18.65;;;16.80;;
21814;SDS011;11069;48.988;8.450;2022-09-01T01:48:01;21.27;;;18.10;;
21814;SDS011;11069;48.988;8.450;2022-09-01T01:50:34;19.70;;;17.70;;
21814;SDS011;11069;48.988;8.450;2022-09-01T01:53:02;20.88;;;19.00;;
21814;SDS011;11069;48.988;8.450;2022-09-01T01:55:30;20.38;;;18.55;;
21814;SDS011;11069;48.988;8.450;2022-09-01T01:57:57;19.75;;;17.95;;
21814;SDS011;11069;48.988;8.450;2022-09-01T02:00:27;19.58;;;17.80;;
21814;SDS011;11069;48.988;8.450;2022-09-01T02:02:56;18.73;;;17.00;;
21814;SDS011;11069;48.988;8.450;2022-09-01T02:05:24;19.52;;;17.77;;
21814;SDS011;11069;48.988;8.450;2022-09-01T02:08:04;18.50;;;16.88;;
21814;SDS011;11069;48.988;8.450;2022-09-01T02:10:32;18.55;;;16.60;;
21814;SDS011;11069;48.988;8.450;2022-09-01T02:13:00;17.80;;;15.27;;
21814;SDS011;11069;48.988;8.450;2022-09-01T02:15:31;17.25;;;15.57;;
21814;SDS011;11069;48.988;8.450;2022-09-01T02:18:02;17.92;;;16.25;;
21814;SDS011;11069;48.988;8.450;2022-09-01T02:20:28;17.13;;;15.63;;
21814;SDS011;11069;48.988;8.450;2022-09-01T02:22:57;17.35;;;15.68;;
21814;SDS011;11069;48.988;8.450;2022-09-01T02:25:32;16.17;;;14.65;;
21814;SDS011;11069;48.988;8.450;2022-09-01T02:27:59;16.15;;;14.57;;
21814;SDS011;11069;48.988;8.450;2022-09-01T02:30:27;16.73;;;14.38;;
21814;SDS011;11069;48.988;8.450;2022-09-01T02:32:56;16.75;;;14.40;;
21814;SDS011;11069;48.988;8.450;2022-09-01T02:35:25;15.90;;;14.40;;
21814;SDS011;11069;48.988;8.450;2022-09-01T02:38:02;16.67;;;15.07;;
21814;SDS011;11069;48.988;8.450;2022-09-01T02:40:29;21.05;;;16.00;;
21814;SDS011;11069;48.988;8.450;2022-09-01T02:42:57;19.23;;;17.20;;
21814;SDS011;11069;48.988;8.450;2022-09-01T02:45:24;21.55;;;16.55;;
21814;SDS011;11069;48.988;8.450;2022-09-01T02:47:50;19.80;;;17.92;;
21814;SDS011;11069;48.988;8.450;2022-09-01T02:50:18;21.70;;;19.60;;
21814;SDS011;11069;48.988;8.450;2022-09-01T02:52:46;22.35;;;20.02;;
21814;SDS011;11069;48.988;8.450;2022-09-01T02:55:14;21.75;;;19.45;;
21814;SDS011;11069;48.988;8.450;2022-09-01T02:57:46;21.55;;;19.45;;
21814;SDS011;11069;48.988;8.450;2022-09-01T03:00:14;20.88;;;18.77;;
21814;SDS011;11069;48.988;8.450;2022-09-01T03:02:54;21.35;;;18.95;;
21814;SDS011;11069;48.988;8.450;2022-09-01T03:05:22;19.40;;;17.60;;
21814;SDS011;11069;48.988;8.450;2022-09-01T03:07:54;19.23;;;17.55;;
21814;SDS011;11069;48.988;8.450;2022-09-01T03:10:24;19.73;;;17.90;;
21814;SDS011;11069;48.988;8.450;2022-09-01T03:12:56;20.65;;;17.77;;
21814;SDS011;11069;48.988;8.450;2022-09-01T03:15:22;19.85;;;17.20;;
21814;SDS011;11069;48.988;8.450;2022-09-01T03:17:48;18.27;;;16.67;;
21814;SDS011;11069;48.988;8.450;2022-09-01T03:20:15;19.65;;;16.48;;
21814;SDS011;11069;48.988;8.450;2022-09-01T03:22:43;18.70;;;15.95;;
21814;SDS011;11069;48.988;8.450;2022-09-01T03:25:09;18.45;;;16.13;;
21814;SDS011;11069;48.988;8.450;2022-09-01T03:27:34;16.65;;;15.02;;
21814;SDS011;11069;48.988;8.450;2022-09-01T03:30:00;16.95;;;15.50;;
21814;SDS011;11069;48.988;8.450;2022-09-01T03:32:25;18.52;;;16.63;;
21814;SDS011;11069;48.988;8.450;2022-09-01T03:34:52;17.95;;;16.23;;
21814;SDS011;11069;48.988;8.450;2022-09-01T03:37:17;18.77;;;16.98;;
21814;SDS011;11069;48.988;8.450;2022-09-01T03:39:44;19.00;;;17.10;;
21814;SDS011;11069;48.988;8.450;2022-09-01T03:42:11;19.05;;;17.20;;
21814;SDS011;11069;48.988;8.450;2022-09-01T03:44:43;18.38;;;16.70;;
21814;SDS011;11069;48.988;8.450;2022-09-01T03:47:09;18.20;;;16.23;;
21814;SDS011;11069;48.988;8.450;2022-09-01T03:49:35;18.77;;;16.98;;
21814;SDS011;11069;48.988;8.450;2022-09-01T03:52:03;18.85;;;16.98;;
21814;SDS011;11069;48.988;8.450;2022-09-01T03:54:32;19.10;;;17.27;;
21814;SDS011;11069;48.988;8.450;2022-09-01T03:56:57;21.83;;;18.17;;
21814;SDS011;11069;48.988;8.450;2022-09-01T03:59:23;19.83;;;17.58;;
21814;SDS011;11069;48.988;8.450;2022-09-01T04:01:49;19.40;;;17.55;;
21814;SDS011;11069;48.988;8.450;2022-09-01T04:04:15;19.90;;;17.42;;
21814;SDS011;11069;48.988;8.450;2022-09-01T04:06:42;19.60;;;17.30;;
21814;SDS011;11069;48.988;8.450;2022-09-01T04:09:09;22.20;;;17.67;;
21814;SDS011;11069;48.988;8.450;2022-09-01T04:11:36;19.60;;;17.52;;
21814;SDS011;11069;48.988;8.450;2022-09-01T04:14:03;21.35;;;18.20;;
21814;SDS011;11069;48.988;8.450;2022-09-01T04:16:31;20.85;;;18.52;;
21814;SDS011;11069;48.988;8.450;2022-09-01T04:19:18;20.85;;;18.65;;
21814;SDS011;11069;48.988;8.450;2022-09-01T04:21:50;21.23;;;19.10;;
21814;SDS011;11069;48.988;8.450;2022-09-01T04:24:18;22.95;;;20.55;;
21814;SDS011;11069;48.988;8.450;2022-09-01T04:26:45;21.80;;;19.60;;
21814;SDS011;11069;48.988;8.450;2022-09-01T04:29:13;22.45;;;20.15;;
21814;SDS011;11069;48.988;8.450;2022-09-01T04:31:42;22.75;;;20.05;;
21814;SDS011;11069;48.988;8.450;2022-09-01T04:34:08;22.13;;;20.13;;
21814;SDS011;11069;48.988;8.450;2022-09-01T04:36:38;23.25;;;20.83;;
21814;SDS011;11069;48.988;8.450;2022-09-01T04:39:06;24.58;;;21.73;;
21814;SDS011;11069;48.988;8.450;2022-09-01T04:41:34;22.70;;;20.40;;
21814;SDS011;11069;48.988;8.450;2022-09-01T04:44:02;24.17;;;21.92;;
21814;SDS011;11069;48.988;8.450;2022-09-01T04:46:30;24.73;;;22.23;;
21814;SDS011;11069;48.988;8.450;2022-09-01T04:48:57;24.75;;;21.88;;
21814;SDS011;11069;48.988;8.450;2022-09-01T04:51:23;25.02;;;22.42;;
21814;SDS011;11069;48.988;8.450;2022-09-01T04:53:52;26.02;;;22.63;;
21814;SDS011;11069;48.988;8.450;2022-09-01T04:56:18;25.02;;;22.38;;
21814;SDS011;11069;48.988;8.450;2022-09-01T04:58:47;24.58;;;22.27;;
21814;SDS011;11069;48.988;8.450;2022-09-01T05:01:17;26.45;;;23.75;;
21814;SDS011;11069;48.988;8.450;2022-09-01T05:03:44;25.92;;;23.33;;
21814;SDS011;11069;48.988;8.450;2022-09-01T05:06:16;27.42;;;22.83;;
21814;SDS011;11069;48.988;8.450;2022-09-01T05:08:44;27.42;;;23.75;;
21814;SDS011;11069;48.988;8.450;2022-09-01T05:11:11;25.90;;;23.27;;
21814;SDS011;11069;48.988;8.450;2022-09-01T05:13:40;26.17;;;23.42;;
21814;SDS011;11069;48.988;8.450;2022-09-01T05:16:09;26.67;;;24.13;;
21814;SDS011;11069;48.988;8.450;2022-09-01T05:18:37;26.15;;;23.50;;
21814;SDS011;11069;48.988;8.450;2022-09-01T05:21:08;26.50;;;23.77;;
21814;SDS011;11069;48.988;8.450;2022-09-01T05:23:35;27.40;;;24.53;;
21814;SDS011;11069;48.988;8.450;2022-09-01T05:26:02;27.23;;;24.65;;
21814;SDS011;11069;48.988;8.450;2022-09-01T05:28:30;28.85;;;25.27;;
21814;SDS011;11069;48.988;8.450;2022-09-01T05:30:58;27.20;;;23.60;;
21814;SDS011;11069;48.988;8.450;2022-09-01T05:33:24;26.83;;;23.98;;
21814;SDS011;11069;48.988;8.450;2022-09-01T05:35:52;27.73;;;24.85;;
21814;SDS011;11069;48.988;8.450;2022-09-01T05:38:19;27.40;;;24.67;;
21814;SDS011;11069;48.988;8.450;2022-09-01T05:40:54;28.77;;;25.70;;
21814;SDS011;11069;48.988;8.450;2022-09-01T05:43:22;28.15;;;25.33;;
21814;SDS011;11069;48.988;8.450;2022-09-01T05:45:51;29.25;;;26.40;;
21814;SDS011;11069;48.988;8.450;2022-09-01T05:48:17;29.35;;;26.33;;
21814;SDS011;11069;48.988;8.450;2022-09-01T05:50:45;28.50;;;25.80;;
21814;SDS011;11069;48.988;8.450;2022-09-01T05:53:13;29.98;;;27.00;;
21814;SDS011;11069;48.988;8.450;2022-09-01T05:55:43;31.13;;;27.90;;
21814;SDS011;11069;48.988;8.450;2022-09-01T05:58:10;32.00;;;28.75;;
21814;SDS011;11069;48.988;8.450;2022-09-01T06:00:44;33.10;;;29.45;;
21814;SDS011;11069;48.988;8.450;2022-09-01T06:03:13;31.27;;;28.17;;
21814;SDS011;11069;48.988;8.450;2022-09-01T06:05:40;34.58;;;31.27;;
21814;SDS011;11069;48.988;8.450;2022-09-01T06:08:07;32.65;;;29.50;;
21814;SDS011;11069;48.988;8.450;2022-09-01T06:10:37;34.70;;;30.92;;
21814;SDS011;11069;48.988;8.450;2022-09-01T06:13:05;34.97;;;31.45;;
21814;SDS011;11069;48.988;8.450;2022-09-01T06:15:31;32.05;;;28.80;;
21814;SDS011;11069;48.988;8.450;2022-09-01T06:17:57;31.35;;;28.27;;
21814;SDS011;11069;48.988;8.450;2022-09-01T06:20:24;30.23;;;27.40;;
21814;SDS011;11069;48.988;8.450;2022-09-01T06:22:51;29.10;;;26.23;;
21814;SDS011;11069;48.988;8.450;2022-09-01T06:25:20;27.35;;;24.65;;
21814;SDS011;11069;48.988;8.450;2022-09-01T06:27:46;27.42;;;24.73;;
21814;SDS011;11069;48.988;8.450;2022-09-01T06:30:13;27.50;;;24.48;;
21814;SDS011;11069;48.988;8.450;2022-09-01T06:32:44;26.38;;;23.52;;
21814;SDS011;11069;48.988;8.450;2022-09-01T06:35:11;25.63;;;22.88;;
21814;SDS011;11069;48.988;8.450;2022-09-01T06:37:39;24.65;;;22.30;;
21814;SDS011;11069;48.988;8.450;2022-09-01T06:40:07;24.60;;;22.20;;
21814;SDS011;11069;48.988;8.450;2022-09-01T06:42:34;22.45;;;20.40;;
21814;SDS011;11069;48.988;8.450;2022-09-01T06:45:02;22.95;;;20.70;;
21814;SDS011;11069;48.988;8.450;2022-09-01T06:47:34;21.92;;;19.70;;
21814;SDS011;11069;48.988;8.450;2022-09-01T06:50:00;20.85;;;18.95;;
21814;SDS011;11069;48.988;8.450;2022-09-01T06:52:26;22.50;;;20.13;;
21814;SDS011;11069;48.988;8.450;2022-09-01T06:54:51;19.83;;;17.92;;
21814;SDS011;11069;48.988;8.450;2022-09-01T06:57:18;19.73;;;17.80;;
21814;SDS011;11069;48.988;8.450;2022-09-01T06:59:46;18.55;;;16.63;;
21814;SDS011;11069;48.988;8.450;2022-09-01T07:02:14;19.38;;;17.27;;
21814;SDS011;11069;48.988;8.450;2022-09-01T07:04:42;18.45;;;16.45;;
21814;SDS011;11069;48.988;8.450;2022-09-01T07:07:09;19.67;;;17.63;;
21814;SDS011;11069;48.988;8.450;2022-09-01T07:09:35;18.52;;;16.75;;
21814;SDS011;11069;48.988;8.450;2022-09-01T07:12:01;17.23;;;15.63;;
21814;SDS011;11069;48.988;8.450;2022-09-01T07:14:28;17.30;;;15.50;;
21814;SDS011;11069;48.988;8.450;2022-09-01T07:16:54;15.73;;;13.85;;
21814;SDS011;11069;48.988;8.450;2022-09-01T07:19:22;15.85;;;14.25;;
21814;SDS011;11069;48.988;8.450;2022-09-01T07:21:50;16.33;;;14.70;;
21814;SDS011;11069;48.988;8.450;2022-09-01T07:24:16;16.15;;;14.68;;
21814;SDS011;11069;48.988;8.450;2022-09-01T07:26:44;16.30;;;14.70;;
21814;SDS011;11069;48.988;8.450;2022-09-01T07:29:15;16.63;;;14.95;;
21814;SDS011;11069;48.988;8.450;2022-09-01T07:34:11;17.70;;;13.93;;
21814;SDS011;11069;48.988;8.450;2022-09-01T07:36:38;15.52;;;14.00;;
21814;SDS011;11069;48.988;8.450;2022-09-01T07:39:04;16.23;;;14.38;;
21814;SDS011;11069;48.988;8.450;2022-09-01T07:41:30;15.32;;;13.82;;
21814;SDS011;11069;48.988;8.450;2022-09-01T07:43:58;15.70;;;13.05;;
21814;SDS011;11069;48.988;8.450;2022-09-01T07:46:25;13.85;;;12.55;;
21814;SDS011;11069;48.988;8.450;2022-09-01T07:48:53;14.73;;;13.32;;
21814;SDS011;11069;48.988;8.450;2022-09-01T07:51:20;14.48;;;12.43;;
21814;SDS011;11069;48.988;8.450;2022-09-01T07:53:47;13.77;;;12.38;;
21814;SDS011;11069;48.988;8.450;2022-09-01T07:56:14;15.15;;;12.40;;
21814;SDS011;11069;48.988;8.450;2022-09-01T07:58:43;13.70;;;11.32;;
21814;SDS011;11069;48.988;8.450;2022-09-01T08:01:10;12.32;;;9.63;;
21814;SDS011;11069;48.988;8.450;2022-09-01T08:03:41;11.23;;;10.02;;
21814;SDS011;11069;48.988;8.450;2022-09-01T08:06:07;10.70;;;9.38;;
21814;SDS011;11069;48.988;8.450;2022-09-01T08:08:36;11.32;;;10.23;;
21814;SDS011;11069;48.988;8.450;2022-09-01T08:11:04;11.55;;;10.10;;
21814;SDS011;11069;48.988;8.450;2022-09-01T08:13:33;10.73;;;9.73;;
21814;SDS011;11069;48.988;8.450;2022-09-01T08:16:02;9.90;;;9.00;;
21814;SDS011;11069;48.988;8.450;2022-09-01T08:18:29;11.65;;;10.43;;
21814;SDS011;11069;48.988;8.450;2022-09-01T08:20:55;11.10;;;10.02;;
21814;SDS011;11069;48.988;8.450;2022-09-01T08:23:21;10.90;;;9.75;;
21814;SDS011;11069;48.988;8.450;2022-09-01T08:25:50;11.20;;;10.13;;
21814;SDS011;11069;48.988;8.450;2022-09-01T08:28:16;11.35;;;8.75;;
21814;SDS011;11069;48.988;8.450;2022-09-01T08:30:42;9.73;;;8.38;;
21814;SDS011;11069;48.988;8.450;2022-09-01T08:33:09;10.20;;;9.20;;
21814;SDS011;11069;48.988;8.450;2022-09-01T08:35:45;9.57;;;8.60;;
21814;SDS011;11069;48.988;8.450;2022-09-01T08:38:12;10.20;;;8.35;;
21814;SDS011;11069;48.988;8.450;2022-09-01T08:40:39;8.88;;;8.05;;
21814;SDS011;11069;48.988;8.450;2022-09-01T08:43:24;10.10;;;8.35;;
21814;SDS011;11069;48.988;8.450;2022-09-01T08:48:51;8.38;;;7.65;;
21814;SDS011;11069;48.988;8.450;2022-09-01T08:54:17;9.25;;;8.23;;
21814;SDS011;11069;48.988;8.450;2022-09-01T08:56:46;10.40;;;8.35;;
21814;SDS011;11069;48.988;8.450;2022-09-01T08:59:13;8.93;;;8.02;;
21814;SDS011;11069;48.988;8.450;2022-09-01T09:01:42;10.18;;;7.78;;
21814;SDS011;11069;48.988;8.450;2022-09-01T09:04:34;8.25;;;7.43;;
21814;SDS011;11069;48.988;8.450;2022-09-01T09:10:17;7.97;;;7.18;;
21814;SDS011;11069;48.988;8.450;2022-09-01T09:15:57;8.90;;;6.13;;
21814;SDS011;11069;48.988;8.450;2022-09-01T09:18:42;6.38;;;5.75;;
21814;SDS011;11069;48.988;8.450;2022-09-01T09:21:17;8.48;;;5.28;;
21814;SDS011;11069;48.988;8.450;2022-09-01T09:23:47;5.82;;;4.88;;
21814;SDS011;11069;48.988;8.450;2022-09-01T09:26:20;6.03;;;5.25;;
21814;SDS011;11069;48.988;8.450;2022-09-01T09:28:46;5.97;;;5.47;;
21814;SDS011;11069;48.988;8.450;2022-09-01T09:33:56;4.80;;;4.40;;
21814;SDS011;11069;48.988;8.450;2022-09-01T09:36:28;5.03;;;4.53;;
21814;SDS011;11069;48.988;8.450;2022-09-01T09:39:13;4.80;;;4.40;;
21814;SDS011;11069;48.988;8.450;2022-09-01T09:41:42;7.00;;;4.30;;
21814;SDS011;11069;48.988;8.450;2022-09-01T09:44:26;8.68;;;4.70;;
21814;SDS011;11069;48.988;8.450;2022-09-01T09:46:54;5.07;;;4.35;;
21814;SDS011;11069;48.988;8.450;2022-09-01T09:51:57;4.88;;;4.40;;
21814;SDS011;11069;48.988;8.450;2022-09-01T09:57:27;3.80;;;3.50;;
21814;SDS011;11069;48.988;8.450;2022-09-01T10:00:00;4.75;;;3.70;;
21814;SDS011;11069;48.988;8.450;2022-09-01T10:02:37;5.45;;;4.63;;
21814;SDS011;11069;48.988;8.450;2022-09-01T10:05:24;5.10;;;4.25;;
21814;SDS011;11069;48.988;8.450;2022-09-01T10:08:02;5.25;;;3.90;;
21814;SDS011;11069;48.988;8.450;2022-09-01T10:13:02;4.80;;;4.40;;
21814;SDS011;11069;48.988;8.450;2022-09-01T10:15:31;4.90;;;4.40;;
21814;SDS011;11069;48.988;8.450;2022-09-01T10:18:08;5.32;;;4.78;;
21814;SDS011;11069;48.988;8.450;2022-09-01T10:20:39;4.82;;;4.32;;
21814;SDS011;11069;48.988;8.450;2022-09-01T10:23:37;6.85;;;4.60;;
21814;SDS011;11069;48.988;8.450;2022-09-01T10:28:57;4.93;;;4.22;;
21814;SDS011;11069;48.988;8.450;2022-09-01T10:31:30;4.72;;;4.22;;
21814;SDS011;11069;48.988;8.450;2022-09-01T10:33:56;5.50;;;4.47;;
21814;SDS011;11069;48.988;8.450;2022-09-01T10:36:23;4.05;;;3.75;;
21814;SDS011;11069;48.988;8.450;2022-09-01T10:38:49;5.35;;;3.60;;
21814;SDS011;11069;48.988;8.450;2022-09-01T10:44:18;4.47;;;4.00;;
21814;SDS011;11069;48.988;8.450;2022-09-01T10:46:47;4.80;;;4.15;;
21814;SDS011;11069;48.988;8.450;2022-09-01T10:49:18;5.88;;;4.72;;
21814;SDS011;11069;48.988;8.450;2022-09-01T10:51:51;4.50;;;4.00;;
21814;SDS011;11069;48.988;8.450;2022-09-01T10:57:09;5.45;;;4.05;;
21814;SDS011;11069;48.988;8.450;2022-09-01T10:59:50;5.15;;;3.78;;
21814;SDS011;11069;48.988;8.450;2022-09-01T11:02:18;6.05;;;4.13;;
21814;SDS011;11069;48.988;8.450;2022-09-01T11:09:46;6.15;;;4.30;;
21814;SDS011;11069;48.988;8.450;2022-09-01T11:15:54;4.55;;;4.15;;
21814;SDS011;11069;48.988;8.450;2022-09-01T11:18:09;6.38;;;4.38;;
21814;SDS011;11069;48.988;8.450;2022-09-01T11:20:39;5.35;;;4.53;;
21814;SDS011;11069;48.988;8.450;2022-09-01T11:23:09;5.32;;;4.78;;
21814;SDS011;11069;48.988;8.450;2022-09-01T11:25:46;4.80;;;4.40;;
21814;SDS011;11069;48.988;8.450;2022-09-01T11:30:46;5.50;;;4.68;;
21814;SDS011;11069;48.988;8.450;2022-09-01T11:33:50;7.78;;;4.68;;
21814;SDS011;11069;48.988;8.450;2022-09-01T11:41:53;4.45;;;4.05;;
21814;SDS011;11069;48.988;8.450;2022-09-01T11:44:23;8.63;;;4.20;;
21814;SDS011;11069;48.988;8.450;2022-09-01T11:46:53;5.78;;;4.03;;
21814;SDS011;11069;48.988;8.450;2022-09-01T11:49:46;7.70;;;3.90;;
21814;SDS011;11069;48.988;8.450;2022-09-01T11:52:15;4.55;;;4.15;;
21814;SDS011;11069;48.988;8.450;2022-09-01T11:54:42;4.70;;;3.90;;
21814;SDS011;11069;48.988;8.450;2022-09-01T11:57:27;5.32;;;3.70;;
21814;SDS011;11069;48.988;8.450;2022-09-01T11:59:53;3.88;;;3.53;;
21814;SDS011;11069;48.988;8.450;2022-09-01T12:02:24;4.50;;;4.10;;
21814;SDS011;11069;48.988;8.450;2022-09-01T12:04:55;8.00;;;4.88;;
21814;SDS011;11069;48.988;8.450;2022-09-01T12:07:41;5.88;;;4.00;;
21814;SDS011;11069;48.988;8.450;2022-09-01T12:13:11;5.50;;;3.90;;
21814;SDS011;11069;48.988;8.450;2022-09-01T12:15:53;7.07;;;3.97;;
21814;SDS011;11069;48.988;8.450;2022-09-01T12:18:25;7.55;;;3.70;;
21814;SDS011;11069;48.988;8.450;2022-09-01T12:20:54;4.43;;;3.83;;
21814;SDS011;11069;48.988;8.450;2022-09-01T12:23:23;3.95;;;3.60;;
21814;SDS011;11069;48.988;8.450;2022-09-01T12:25:49;6.03;;;3.65;;
21814;SDS011;11069;48.988;8.450;2022-09-01T12:28:19;3.72;;;3.00;;
21814;SDS011;11069;48.988;8.450;2022-09-01T12:33:25;5.00;;;3.28;;
21814;SDS011;11069;48.988;8.450;2022-09-01T12:36:11;4.28;;;2.75;;
21814;SDS011;11069;48.988;8.450;2022-09-01T12:42:00;6.63;;;3.72;;
21814;SDS011;11069;48.988;8.450;2022-09-01T12:47:53;3.47;;;3.17;;
21814;SDS011;11069;48.988;8.450;2022-09-01T12:52:51;4.18;;;3.28;;
21814;SDS011;11069;48.988;8.450;2022-09-01T12:55:40;3.83;;;3.13;;
21814;SDS011;11069;48.988;8.450;2022-09-01T12:58:24;3.80;;;2.97;;
21814;SDS011;11069;48.988;8.450;2022-09-01T13:00:58;5.65;;;3.22;;
21814;SDS011;11069;48.988;8.450;2022-09-01T13:03:29;3.78;;;3.33;;
21814;SDS011;11069;48.988;8.450;2022-09-01T13:05:57;3.50;;;3.17;;
21814;SDS011;11069;48.988;8.450;2022-09-01T13:08:25;4.50;;;2.95;;
21814;SDS011;11069;48.988;8.450;2022-09-01T13:10:55;4.82;;;3.10;;
21814;SDS011;11069;48.988;8.450;2022-09-01T13:13:24;3.63;;;3.00;;
21814;SDS011;11069;48.988;8.450;2022-09-01T13:15:51;5.65;;;3.22;;
21814;SDS011;11069;48.988;8.450;2022-09-01T13:18:19;3.03;;;2.83;;
21814;SDS011;11069;48.988;8.450;2022-09-01T13:20:47;3.72;;;2.90;;
21814;SDS011;11069;48.988;8.450;2022-09-01T13:23:13;2.92;;;2.72;;
21814;SDS011;11069;48.988;8.450;2022-09-01T13:25:40;3.17;;;2.88;;
21814;SDS011;11069;48.988;8.450;2022-09-01T13:28:08;3.08;;;2.78;;
21814;SDS011;11069;48.988;8.450;2022-09-01T13:30:35;4.72;;;3.20;;
21814;SDS011;11069;48.988;8.450;2022-09-01T13:33:02;3.08;;;2.70;;
21814;SDS011;11069;48.988;8.450;2022-09-01T13:35:28;3.00;;;2.58;;
21814;SDS011;11069;48.988;8.450;2022-09-01T13:37:54;2.83;;;2.55;;
21814;SDS011;11069;48.988;8.450;2022-09-01T13:40:20;3.70;;;2.63;;
21814;SDS011;11069;48.988;8.450;2022-09-01T13:42:52;7.32;;;2.90;;
21814;SDS011;11069;48.988;8.450;2022-09-01T13:45:19;2.88;;;2.60;;
21814;SDS011;11069;48.988;8.450;2022-09-01T13:47:52;3.45;;;2.75;;
21814;SDS011;11069;48.988;8.450;2022-09-01T13:50:19;4.57;;;2.70;;
21814;SDS011;11069;48.988;8.450;2022-09-01T13:52:49;3.15;;;2.78;;
21814;SDS011;11069;48.988;8.450;2022-09-01T13:55:18;3.53;;;2.80;;
21814;SDS011;11069;48.988;8.450;2022-09-01T13:57:46;2.93;;;2.50;;
21814;SDS011;11069;48.988;8.450;2022-09-01T14:00:15;3.42;;;2.70;;
21814;SDS011;11069;48.988;8.450;2022-09-01T14:02:48;3.30;;;2.65;;
21814;SDS011;11069;48.988;8.450;2022-09-01T14:05:39;4.28;;;2.92;;
21814;SDS011;11069;48.988;8.450;2022-09-01T14:08:07;2.78;;;2.58;;
21814;SDS011;11069;48.988;8.450;2022-09-01T14:10:36;2.92;;;2.63;;
21814;SDS011;11069;48.988;8.450;2022-09-01T14:15:29;3.42;;;2.90;;
21814;SDS011;11069;48.988;8.450;2022-09-01T14:17:56;3.80;;;2.83;;
21814;SDS011;11069;48.988;8.450;2022-09-01T14:20:23;3.80;;;2.70;;
21814;SDS011;11069;48.988;8.450;2022-09-01T14:22:51;2.65;;;2.45;;
21814;SDS011;11069;48.988;8.450;2022-09-01T14:25:18;3.88;;;2.25;;
21814;SDS011;11069;48.988;8.450;2022-09-01T14:27:44;3.58;;;1.77;;
21814;SDS011;11069;48.988;8.450;2022-09-01T14:30:13;2.55;;;2.00;;
21814;SDS011;11069;48.988;8.450;2022-09-01T14:32:47;2.42;;;1.83;;
21814;SDS011;11069;48.988;8.450;2022-09-01T14:35:13;2.08;;;1.77;;
21814;SDS011;11069;48.988;8.450;2022-09-01T14:37:40;1.85;;;1.75;;
21814;SDS011;11069;48.988;8.450;2022-09-01T14:40:06;4.28;;;2.03;;
21814;SDS011;11069;48.988;8.450;2022-09-01T14:42:32;2.97;;;2.00;;
21814;SDS011;11069;48.988;8.450;2022-09-01T14:44:59;4.22;;;2.35;;
21814;SDS011;11069;48.988;8.450;2022-09-01T14:47:26;2.67;;;2.00;;
21814;SDS011;11069;48.988;8.450;2022-09-01T14:49:51;2.72;;;2.15;;
21814;SDS011;11069;48.988;8.450;2022-09-01T14:52:17;3.70;;;2.50;;
21814;SDS011;11069;48.988;8.450;2022-09-01T14:54:45;3.78;;;2.28;;
21814;SDS011;11069;48.988;8.450;2022-09-01T14:57:10;3.45;;;1.95;;
21814;SDS011;11069;48.988;8.450;2022-09-01T14:59:37;2.10;;;2.00;;
21814;SDS011;11069;48.988;8.450;2022-09-01T15:02:04;3.97;;;2.00;;
21814;SDS011;11069;48.988;8.450;2022-09-01T15:04:30;3.38;;;2.10;;
21814;SDS011;11069;48.988;8.450;2022-09-01T15:06:56;2.50;;;2.30;;
21814;SDS011;11069;48.988;8.450;2022-09-01T15:09:21;4.90;;;2.22;;
21814;SDS011;11069;48.988;8.450;2022-09-01T15:11:47;2.85;;;2.08;;
21814;SDS011;11069;48.988;8.450;2022-09-01T15:14:13;4.78;;;2.42;;
21814;SDS011;11069;48.988;8.450;2022-09-01T15:16:38;4.70;;;2.60;;
21814;SDS011;11069;48.988;8.450;2022-09-01T15:19:09;2.47;;;2.28;;
21814;SDS011;11069;48.988;8.450;2022-09-01T15:21:37;4.40;;;2.70;;
21814;SDS011;11069;48.988;8.450;2022-09-01T15:24:04;2.63;;;2.40;;
21814;SDS011;11069;48.988;8.450;2022-09-01T15:26:31;3.55;;;2.65;;
21814;SDS011;11069;48.988;8.450;2022-09-01T15:28:58;4.40;;;2.38;;
21814;SDS011;11069;48.988;8.450;2022-09-01T15:31:25;6.20;;;2.20;;
21814;SDS011;11069;48.988;8.450;2022-09-01T15:33:56;2.40;;;2.20;;
21814;SDS011;11069;48.988;8.450;2022-09-01T15:36:24;2.80;;;2.30;;
21814;SDS011;11069;48.988;8.450;2022-09-01T15:38:52;4.85;;;2.45;;
21814;SDS011;11069;48.988;8.450;2022-09-01T15:41:19;4.47;;;2.65;;
21814;SDS011;11069;48.988;8.450;2022-09-01T15:43:51;2.90;;;2.70;;
21814;SDS011;11069;48.988;8.450;2022-09-01T15:46:18;3.67;;;2.53;;
21814;SDS011;11069;48.988;8.450;2022-09-01T15:48:44;3.85;;;2.67;;
21814;SDS011;11069;48.988;8.450;2022-09-01T15:53:48;6.88;;;2.58;;
21814;SDS011;11069;48.988;8.450;2022-09-01T15:56:15;5.68;;;2.80;;
21814;SDS011;11069;48.988;8.450;2022-09-01T15:58:44;3.13;;;2.88;;